Ardonia, NY

10:11 AM EST on November 28, 2014 (GMT -0500)
Town of Lloyd | Change Station
CLOSE
Current Station
Personal Weather Station
Location: Highland, NY
Elevation: 315 ft
Nearby Weather Stations

Elev 315 ft 41.72 °N, 73.97 °W | Updated 1 second ago

Partly Cloudy
Partly Cloudy
35.1 °F
Feels Like 35 °F
N
2.2
Wind Variable Wind from North
Gusts 4.5 mph

Today
High -- | Low -- °F
--% Chance of Precip.
Yesterday
High -- | Low -- °F
Precip. -- in
7:00 AM 4:27 PM
Waxing Crescent, 41% visible
Pressure 30.17 in
Visibility 10.0 miles
Clouds Few 4400 ft
Windchill 35 °F
Dew Point 18 °F
Humidity 49%
Rainfall 0.00 in
Snow Depth Not available.
UV 2 out of 12
Pollen .10 out of 12
Air Quality Not available.
Flu Activity Not available.
METAR KPOU 281453Z 00000KT 10SM FEW044 M01/M03 A3017 RMK AO2 SLP217 I3000 T10111033 51019

More Conditions Fewer Conditions

Pressure 30.17 in
Visibility 10.0 miles
Clouds Few 4400 ft
Windchill 35 °F
Dew Point 18 °F
Humidity 49%
Rainfall 0.00 in
Snow Depth Not available.
UV 2 out of 12
Pollen .10 out of 12
Air Quality Not available.
Flu Activity Not available.
METAR KPOU 281453Z 00000KT 10SM FEW044 M01/M03 A3017 RMK AO2 SLP217 I3000 T10111033 51019

More Conditions Fewer Conditions

10-Day Weather Forecast

Almanac

Astronomy

Nov. 28, 2014 Rise Set
Actual Time
Civil Twilight
Nautical Twilight
Astronomical Twilight
Moon
Length of Visible Light
Length of Day
Tomorrow will be .
, % of the Moon is Illuminated

Today's Extremes

State Highs State Lows

Community

WunderPhotos

Upload Photos

1,774,227 photos uploaded!

WunderBlogs® & News

Nearby

Air Quality

  Air Quality AQ Index Pollutant
Not available.

Snow Depth

Station Depth Elevation

Earthquake Activity

City Distance Mag. Time & Date
Minimum magnitude displayed is 2.5.

Coastal Water Temperatures

Place Temperature

Nearby Weather Stations